createdAt,value
2023-05-24T00:00:56.491Z,510.00
2023-05-24T00:01:56.541Z,506.00
2023-05-24T00:02:56.650Z,507.00
2023-05-24T00:03:56.651Z,507.00
2023-05-24T00:04:56.621Z,507.00
2023-05-24T00:05:56.674Z,505.00
2023-05-24T00:06:56.677Z,504.00
2023-05-24T00:07:56.722Z,502.00
2023-05-24T00:08:56.720Z,504.00
2023-05-24T00:09:56.770Z,502.00
2023-05-24T00:10:56.817Z,504.00
2023-05-24T00:11:56.861Z,505.00
2023-05-24T00:12:56.868Z,504.00
2023-05-24T00:13:56.915Z,505.00
2023-05-24T00:14:56.945Z,501.00
2023-05-24T00:15:56.973Z,503.00
2023-05-24T00:16:57.168Z,503.00
2023-05-24T00:17:57.055Z,504.00
2023-05-24T00:18:57.064Z,504.00
2023-05-24T00:19:57.124Z,507.00
2023-05-24T00:20:57.145Z,505.00
2023-05-24T00:21:57.140Z,505.00
2023-05-24T00:22:57.195Z,507.00
2023-05-24T00:23:57.220Z,502.00
2023-05-24T00:24:57.246Z,503.00
2023-05-24T00:25:57.293Z,504.00
2023-05-24T00:26:57.330Z,500.00
2023-05-24T00:27:57.409Z,500.00
2023-05-24T00:28:57.409Z,509.00
2023-05-24T00:29:57.422Z,507.00
2023-05-24T00:30:57.561Z,506.00
2023-05-24T00:31:57.530Z,508.00
2023-05-24T00:32:57.579Z,508.00
2023-05-24T00:33:57.606Z,505.00
2023-05-24T00:34:57.587Z,508.00
2023-05-24T00:35:57.611Z,504.00
2023-05-24T00:36:57.650Z,507.00
2023-05-24T00:37:57.701Z,503.00
2023-05-24T00:38:57.729Z,505.00
2023-05-24T00:39:57.750Z,501.00
2023-05-24T00:40:57.809Z,501.00
2023-05-24T00:41:57.832Z,503.00
2023-05-24T00:42:57.852Z,508.00
2023-05-24T00:43:57.884Z,505.00
2023-05-24T00:44:57.922Z,507.00
2023-05-24T00:45:57.998Z,508.00
2023-05-24T00:46:57.979Z,503.00
2023-05-24T00:47:58.125Z,508.00
2023-05-24T00:48:58.031Z,501.00
2023-05-24T00:49:58.065Z,504.00
2023-05-24T00:50:58.102Z,504.00
2023-05-24T00:51:58.164Z,505.00
2023-05-24T00:52:58.158Z,508.00
2023-05-24T00:53:58.228Z,508.00
2023-05-24T00:54:58.240Z,503.00
2023-05-24T00:55:58.304Z,502.00
2023-05-24T00:56:58.276Z,506.00
2023-05-24T00:57:58.338Z,505.00
2023-05-24T00:58:58.363Z,502.00
2023-05-24T00:59:58.417Z,501.00
2023-05-24T01:00:58.401Z,504.00
2023-05-24T01:01:58.525Z,505.00
2023-05-24T01:02:58.598Z,505.00
2023-05-24T01:03:58.554Z,503.00
2023-05-24T01:04:58.572Z,501.00
2023-05-24T01:05:58.609Z,505.00
2023-05-24T01:06:58.689Z,503.00
2023-05-24T01:07:58.771Z,504.00
2023-05-24T01:08:58.700Z,505.00
2023-05-24T01:09:58.748Z,504.00
2023-05-24T01:10:58.770Z,503.00
2023-05-24T01:11:58.867Z,504.00
2023-05-24T01:12:58.828Z,505.00
2023-05-24T01:13:58.905Z,504.00
2023-05-24T01:14:58.909Z,505.00
2023-05-24T01:16:05.987Z,504.00
2023-05-24T01:16:58.968Z,505.00
2023-05-24T01:17:58.968Z,506.00
2023-05-24T01:18:58.933Z,505.00
2023-05-24T01:19:58.998Z,503.00
2023-05-24T01:20:58.932Z,504.00
2023-05-24T01:21:58.924Z,502.00
2023-05-24T01:22:58.904Z,505.00
2023-05-24T01:23:58.924Z,503.00
2023-05-24T01:24:58.917Z,506.00
2023-05-24T01:25:58.935Z,505.00
2023-05-24T01:26:58.881Z,502.00
2023-05-24T01:27:58.915Z,503.00
2023-05-24T01:28:58.872Z,502.00
2023-05-24T01:29:58.883Z,503.00
2023-05-24T01:30:58.887Z,502.00
2023-05-24T01:31:58.860Z,504.00
2023-05-24T01:32:58.864Z,506.00
2023-05-24T01:33:58.842Z,505.00
2023-05-24T01:34:58.861Z,503.00
2023-05-24T01:35:58.829Z,503.00
2023-05-24T01:36:58.856Z,504.00
2023-05-24T01:37:58.836Z,506.00
2023-05-24T01:38:58.801Z,503.00
2023-05-24T01:39:58.812Z,501.00
2023-05-24T01:40:58.810Z,503.00
2023-05-24T01:41:58.774Z,502.00
2023-05-24T01:42:58.781Z,503.00
2023-05-24T01:43:58.777Z,500.00
2023-05-24T01:44:58.777Z,505.00
2023-05-24T01:45:58.765Z,505.00
2023-05-24T01:46:58.805Z,504.00
2023-05-24T01:47:58.790Z,500.00
2023-05-24T01:48:58.731Z,501.00
2023-05-24T01:49:58.762Z,507.00
2023-05-24T01:50:58.785Z,506.00
2023-05-24T01:51:58.854Z,504.00
2023-05-24T01:52:58.837Z,504.00
2023-05-24T01:53:58.829Z,507.00
2023-05-24T01:54:58.858Z,504.00
2023-05-24T01:55:58.918Z,500.00
2023-05-24T01:56:58.977Z,504.00
2023-05-24T01:57:59.001Z,502.00
2023-05-24T01:58:59.025Z,502.00
2023-05-24T01:59:59.086Z,506.00
2023-05-24T02:00:59.132Z,505.00
2023-05-24T02:01:59.133Z,505.00
2023-05-24T02:02:59.304Z,506.00
2023-05-24T02:03:59.208Z,505.00
2023-05-24T02:04:59.212Z,502.00
2023-05-24T02:05:59.271Z,506.00
2023-05-24T02:06:59.302Z,507.00
2023-05-24T02:07:59.356Z,504.00
2023-05-24T02:08:59.401Z,504.00
2023-05-24T02:09:59.439Z,502.00
2023-05-24T02:10:59.457Z,506.00
2023-05-24T02:11:59.470Z,502.00
2023-05-24T02:12:59.589Z,504.00
2023-05-24T02:13:59.578Z,508.00
2023-05-24T02:14:59.601Z,506.00
2023-05-24T02:15:59.669Z,503.00
2023-05-24T02:16:59.736Z,507.00
2023-05-24T02:17:59.731Z,500.00
2023-05-24T02:18:59.763Z,509.00
2023-05-24T02:19:59.821Z,506.00
2023-05-24T02:20:59.803Z,503.00
2023-05-24T02:21:59.856Z,502.00
2023-05-24T02:22:59.875Z,505.00
2023-05-24T02:23:59.958Z,504.00
2023-05-24T02:24:59.975Z,506.00
2023-05-24T02:26:00.035Z,503.00
2023-05-24T02:27:00.031Z,504.00
2023-05-24T02:28:00.069Z,506.00
2023-05-24T02:29:00.154Z,503.00
2023-05-24T02:30:00.188Z,502.00
2023-05-24T02:31:00.256Z,500.00
2023-05-24T02:32:00.233Z,501.00
2023-05-24T02:33:00.305Z,504.00
2023-05-24T02:34:00.286Z,500.00
2023-05-24T02:35:00.296Z,500.00
2023-05-24T02:36:00.396Z,502.00
2023-05-24T02:37:00.404Z,505.00
2023-05-24T02:38:00.423Z,504.00
2023-05-24T02:39:00.519Z,507.00
2023-05-24T02:40:00.549Z,506.00
2023-05-24T02:41:00.604Z,502.00
2023-05-24T02:42:00.644Z,506.00
2023-05-24T02:43:00.654Z,502.00
2023-05-24T02:44:00.697Z,503.00
2023-05-24T02:45:00.761Z,502.00
2023-05-24T02:46:00.841Z,504.00
2023-05-24T02:47:00.843Z,502.00
2023-05-24T02:48:00.924Z,503.00
2023-05-24T02:49:00.918Z,505.00
2023-05-24T02:50:00.967Z,505.00
2023-05-24T02:51:00.981Z,503.00
2023-05-24T02:52:01.088Z,504.00
2023-05-24T02:53:01.111Z,501.00
2023-05-24T02:54:01.206Z,502.00
2023-05-24T02:55:01.199Z,504.00
2023-05-24T02:56:01.229Z,504.00
2023-05-24T02:57:01.312Z,501.00
2023-05-24T02:58:01.356Z,502.00
2023-05-24T02:59:01.395Z,503.00
2023-05-24T03:00:01.442Z,506.00
2023-05-24T03:01:01.488Z,506.00
2023-05-24T03:02:01.592Z,504.00
2023-05-24T03:03:01.589Z,500.00
2023-05-24T03:04:01.658Z,504.00
2023-05-24T03:05:01.650Z,503.00
2023-05-24T03:06:01.685Z,500.00
2023-05-24T03:07:01.736Z,504.00
2023-05-24T03:08:01.762Z,504.00
2023-05-24T03:09:01.805Z,504.00
2023-05-24T03:10:01.806Z,505.00
2023-05-24T03:11:01.890Z,503.00
2023-05-24T03:12:01.885Z,501.00
2023-05-24T03:13:01.960Z,505.00
2023-05-24T03:14:02.041Z,503.00
2023-05-24T03:15:02.048Z,505.00
2023-05-24T03:16:02.181Z,505.00
2023-05-24T03:17:02.157Z,505.00
2023-05-24T03:18:02.172Z,507.00
2023-05-24T03:19:02.216Z,503.00
2023-05-24T03:20:02.294Z,501.00
2023-05-24T03:21:02.288Z,501.00
2023-05-24T03:22:02.339Z,505.00
2023-05-24T03:23:02.378Z,507.00
2023-05-24T03:24:02.450Z,508.00
2023-05-24T03:25:02.501Z,505.00
2023-05-24T03:26:02.574Z,504.00
2023-05-24T03:27:02.594Z,504.00
2023-05-24T03:28:02.624Z,505.00
2023-05-24T03:29:02.693Z,507.00
2023-05-24T03:30:02.738Z,507.00
2023-05-24T03:31:02.779Z,504.00
2023-05-24T03:32:02.948Z,504.00
2023-05-24T03:33:02.911Z,503.00
2023-05-24T03:34:02.943Z,502.00
2023-05-24T03:35:02.979Z,507.00
2023-05-24T03:36:03.080Z,506.00
2023-05-24T03:37:03.080Z,504.00
2023-05-24T03:38:03.129Z,505.00
2023-05-24T03:39:03.177Z,501.00
2023-05-24T03:40:03.208Z,502.00
2023-05-24T03:41:03.286Z,501.00
2023-05-24T03:42:03.334Z,506.00
2023-05-24T03:43:04.589Z,503.00
2023-05-24T03:44:03.436Z,505.00
2023-05-24T03:45:03.465Z,503.00
2023-05-24T03:46:03.593Z,502.00
2023-05-24T03:47:03.612Z,502.00
2023-05-24T03:48:03.671Z,505.00
2023-05-24T03:49:03.700Z,507.00
2023-05-24T03:50:03.775Z,505.00
2023-05-24T03:51:03.823Z,501.00
2023-05-24T03:52:03.885Z,500.00
2023-05-24T03:53:03.909Z,501.00
2023-05-24T03:54:03.942Z,505.00
2023-05-24T03:55:04.027Z,505.00
2023-05-24T03:56:04.055Z,507.00
2023-05-24T03:57:04.132Z,502.00
2023-05-24T03:58:04.171Z,504.00
2023-05-24T03:59:04.238Z,500.00
2023-05-24T04:00:04.259Z,504.00
2023-05-24T04:01:04.388Z,506.00
2023-05-24T04:02:04.448Z,503.00
2023-05-24T04:03:04.497Z,505.00
2023-05-24T04:04:05.527Z,503.00
2023-05-24T04:05:04.603Z,502.00
2023-05-24T04:06:04.635Z,505.00
2023-05-24T04:07:04.637Z,501.00
2023-05-24T04:08:04.711Z,501.00
2023-05-24T04:09:04.750Z,506.00
2023-05-24T04:10:04.846Z,505.00
2023-05-24T04:11:04.828Z,501.00
2023-05-24T04:12:04.921Z,504.00
2023-05-24T04:13:04.956Z,503.00
2023-05-24T04:14:05.001Z,502.00
2023-05-24T04:15:05.055Z,501.00
2023-05-24T04:16:05.071Z,504.00
2023-05-24T04:17:05.230Z,503.00
2023-05-24T04:18:05.297Z,507.00
2023-05-24T04:19:05.232Z,504.00
2023-05-24T04:20:05.353Z,500.00
2023-05-24T04:21:05.384Z,503.00
2023-05-24T04:22:05.402Z,505.00
2023-05-24T04:23:05.474Z,507.00
2023-05-24T04:24:05.546Z,503.00
2023-05-24T04:25:05.663Z,500.00
2023-05-24T04:26:05.954Z,505.00
2023-05-24T04:27:05.727Z,500.00
2023-05-24T04:28:05.708Z,507.00
2023-05-24T04:29:05.764Z,500.00
2023-05-24T04:30:05.795Z,502.00
2023-05-24T04:31:05.913Z,504.00
2023-05-24T04:32:05.898Z,500.00
2023-05-24T04:33:06.004Z,501.00
2023-05-24T04:34:05.998Z,504.00
2023-05-24T04:35:06.023Z,505.00
2023-05-24T04:36:06.450Z,504.00
2023-05-24T04:37:06.144Z,505.00
2023-05-24T04:38:06.267Z,504.00
2023-05-24T04:39:06.263Z,501.00
2023-05-24T04:40:06.303Z,504.00
2023-05-24T04:41:06.349Z,507.00
2023-05-24T04:42:06.425Z,500.00
2023-05-24T04:43:06.446Z,508.00
2023-05-24T04:44:06.506Z,504.00
2023-05-24T04:45:06.589Z,506.00
2023-05-24T04:46:08.930Z,507.00
2023-05-24T04:47:07.048Z,504.00
2023-05-24T04:48:06.953Z,505.00
2023-05-24T04:49:06.972Z,506.00
2023-05-24T04:50:06.994Z,501.00
2023-05-24T04:51:07.029Z,506.00
2023-05-24T04:52:07.112Z,507.00
2023-05-24T04:53:07.174Z,501.00
2023-05-24T04:54:07.225Z,503.00
2023-05-24T04:55:07.266Z,505.00
2023-05-24T04:56:07.329Z,504.00
2023-05-24T04:57:07.354Z,503.00
2023-05-24T04:58:07.412Z,506.00
2023-05-24T04:59:07.479Z,506.00
2023-05-24T05:00:07.553Z,503.00
2023-05-24T05:01:07.606Z,500.00
2023-05-24T05:02:07.676Z,502.00
2023-05-24T05:03:07.853Z,503.00
2023-05-24T05:04:08.051Z,507.00
2023-05-24T05:05:07.848Z,506.00
2023-05-24T05:06:07.895Z,504.00
2023-05-24T05:07:07.954Z,503.00
2023-05-24T05:08:08.038Z,506.00
2023-05-24T05:09:08.102Z,503.00
2023-05-24T05:10:08.109Z,505.00
2023-05-24T05:11:08.193Z,503.00
2023-05-24T05:12:08.225Z,506.00
2023-05-24T05:13:08.299Z,507.00
2023-05-24T05:14:08.348Z,502.00
2023-05-24T05:15:08.399Z,504.00
2023-05-24T05:16:08.461Z,505.00
2023-05-24T05:17:08.511Z,507.00
2023-05-24T05:18:08.606Z,502.00
2023-05-24T05:19:08.589Z,504.00
2023-05-24T05:20:08.684Z,502.00
2023-05-24T05:21:08.738Z,508.00
2023-05-24T05:22:08.766Z,507.00
2023-05-24T05:23:08.819Z,508.00
2023-05-24T05:24:08.900Z,506.00
2023-05-24T05:25:08.925Z,507.00
2023-05-24T05:26:08.996Z,509.00
2023-05-24T05:27:09.028Z,502.00
2023-05-24T05:28:09.121Z,504.00
2023-05-24T05:29:09.161Z,505.00
2023-05-24T05:30:09.263Z,500.00
2023-05-24T05:31:09.302Z,502.00
2023-05-24T05:32:09.360Z,510.00
2023-05-24T05:33:09.622Z,507.00
2023-05-24T05:34:09.460Z,509.00
2023-05-24T05:35:09.477Z,509.00
2023-05-24T05:36:09.544Z,512.00
2023-05-24T05:37:09.599Z,506.00
2023-05-24T05:38:09.688Z,506.00
2023-05-24T05:39:09.735Z,509.00
2023-05-24T05:40:09.788Z,511.00
2023-05-24T05:41:09.847Z,511.00
2023-05-24T05:42:09.933Z,506.00
2023-05-24T05:43:09.952Z,510.00
2023-05-24T05:44:10.038Z,509.00
2023-05-24T05:45:10.132Z,505.00
2023-05-24T05:46:10.201Z,504.00
2023-05-24T05:47:10.234Z,505.00
2023-05-24T05:48:10.366Z,510.00
2023-05-24T05:49:10.296Z,507.00
2023-05-24T05:50:10.362Z,509.00
2023-05-24T05:51:10.443Z,510.00
2023-05-24T05:52:10.489Z,507.00
2023-05-24T05:53:10.548Z,510.00
2023-05-24T05:54:10.627Z,510.00
2023-05-24T05:55:10.674Z,506.00
2023-05-24T05:56:10.725Z,510.00
2023-05-24T05:57:10.797Z,507.00
2023-05-24T05:58:10.852Z,506.00
2023-05-24T05:59:10.896Z,505.00
2023-05-24T06:00:10.982Z,511.00
2023-05-24T06:01:11.015Z,508.00
2023-05-24T06:02:11.087Z,512.00
2023-05-24T06:03:11.380Z,506.00
2023-05-24T06:04:11.283Z,511.00
2023-05-24T06:05:11.213Z,524.00
2023-05-24T06:06:11.269Z,534.00
2023-05-24T06:07:11.337Z,520.00
2023-05-24T06:08:11.411Z,528.00
2023-05-24T06:09:11.487Z,527.00
2023-05-24T06:10:11.517Z,530.00
2023-05-24T06:11:11.586Z,531.00
2023-05-24T06:12:12.589Z,532.00
2023-05-24T06:13:11.585Z,533.00
2023-05-24T06:14:11.538Z,534.00
2023-05-24T06:15:11.671Z,540.00
2023-05-24T06:16:11.566Z,539.00
2023-05-24T06:17:11.537Z,543.00
2023-05-24T06:18:11.564Z,551.00
2023-05-24T06:19:11.491Z,558.00
2023-05-24T06:20:11.566Z,558.00
2023-05-24T06:21:11.520Z,557.00
2023-05-24T06:22:11.504Z,557.00
2023-05-24T06:23:11.491Z,564.00
2023-05-24T06:24:11.493Z,569.00
2023-05-24T06:25:11.550Z,568.00
2023-05-24T06:26:11.573Z,571.00
2023-05-24T06:27:11.618Z,579.00
2023-05-24T06:28:11.637Z,582.00
2023-05-24T06:29:11.660Z,583.00
2023-05-24T06:30:11.728Z,585.00
2023-05-24T06:31:11.748Z,582.00
2023-05-24T06:32:11.761Z,589.00
2023-05-24T06:33:11.781Z,582.00
2023-05-24T06:34:11.816Z,583.00
2023-05-24T06:35:11.884Z,590.00
2023-05-24T06:36:11.885Z,587.00
2023-05-24T06:37:11.892Z,579.00
2023-05-24T06:38:11.986Z,575.00
2023-05-24T06:39:11.984Z,583.00
2023-05-24T06:40:12.053Z,580.00
2023-05-24T06:41:12.029Z,584.00
2023-05-24T06:42:12.073Z,586.00
2023-05-24T06:43:12.116Z,584.00
2023-05-24T06:44:12.152Z,582.00
2023-05-24T06:45:12.165Z,585.00
2023-05-24T06:46:12.201Z,580.00
2023-05-24T06:47:12.309Z,588.00
2023-05-24T06:48:12.415Z,574.00
2023-05-24T06:49:12.275Z,577.00
2023-05-24T06:50:12.423Z,580.00
2023-05-24T06:51:12.374Z,577.00
2023-05-24T06:52:12.382Z,573.00
2023-05-24T06:53:12.444Z,571.00
2023-05-24T06:54:12.470Z,561.00
2023-05-24T06:55:12.469Z,563.00
2023-05-24T06:56:12.509Z,556.00
2023-05-24T06:57:12.546Z,565.00
2023-05-24T06:58:12.564Z,560.00
2023-05-24T06:59:12.575Z,569.00
2023-05-24T07:00:12.686Z,567.00
2023-05-24T07:01:12.706Z,552.00
2023-05-24T07:02:12.620Z,564.00
2023-05-24T07:03:12.656Z,564.00
2023-05-24T07:04:12.748Z,554.00
2023-05-24T07:05:12.841Z,562.00
2023-05-24T07:06:13.047Z,565.00
2023-05-24T07:07:12.768Z,583.00
2023-05-24T07:08:12.821Z,576.00
2023-05-24T07:09:12.795Z,577.00
2023-05-24T07:10:12.894Z,583.00
2023-05-24T07:11:12.909Z,565.00
2023-05-24T07:12:12.939Z,557.00
2023-05-24T07:13:12.958Z,554.00
2023-05-24T07:14:12.971Z,557.00
2023-05-24T07:15:12.980Z,543.00
2023-05-24T07:16:12.979Z,552.00
2023-05-24T07:17:13.043Z,546.00
2023-05-24T07:18:12.995Z,533.00
2023-05-24T07:19:13.012Z,550.00
2023-05-24T07:20:13.129Z,527.00
2023-05-24T07:21:13.046Z,545.00
2023-05-24T07:22:13.070Z,554.00
2023-05-24T07:23:13.166Z,573.00
2023-05-24T07:24:14.757Z,555.00
2023-05-24T07:25:13.072Z,559.00
2023-05-24T07:26:13.089Z,570.00
2023-05-24T07:27:13.093Z,560.00
2023-05-24T07:28:13.077Z,560.00
2023-05-24T07:29:13.060Z,559.00
2023-05-24T07:30:23.504Z,546.00
2023-05-24T07:31:14.088Z,547.00
2023-05-24T07:32:13.059Z,547.00
2023-05-24T07:33:13.040Z,541.00
2023-05-24T07:34:13.022Z,552.00
2023-05-24T07:35:13.039Z,536.00
2023-05-24T07:36:13.048Z,545.00
2023-05-24T07:37:13.012Z,552.00
2023-05-24T07:38:13.024Z,554.00
2023-05-24T07:39:13.206Z,540.00
2023-05-24T07:40:12.976Z,545.00
2023-05-24T07:41:12.975Z,549.00
2023-05-24T07:42:12.987Z,554.00
2023-05-24T07:43:12.943Z,551.00
2023-05-24T07:44:12.953Z,567.00
2023-05-24T07:45:12.943Z,551.00
2023-05-24T07:46:12.991Z,557.00
2023-05-24T07:47:12.934Z,555.00
2023-05-24T07:48:12.955Z,550.00
2023-05-24T07:49:12.928Z,555.00
2023-05-24T07:50:12.948Z,574.00
2023-05-24T07:51:12.903Z,552.00
2023-05-24T07:52:12.902Z,578.00
2023-05-24T07:53:12.899Z,598.00
2023-05-24T07:54:12.858Z,581.00
2023-05-24T07:55:12.895Z,578.00
2023-05-24T07:56:12.878Z,582.00
2023-05-24T07:57:12.901Z,547.00
2023-05-24T07:58:12.899Z,549.00
2023-05-24T07:59:12.953Z,544.00
2023-05-24T08:00:12.960Z,534.00
2023-05-24T08:01:12.970Z,495.00
2023-05-24T08:02:12.990Z,516.00
2023-05-24T08:03:13.057Z,519.00
2023-05-24T08:04:13.016Z,517.00
2023-05-24T08:05:13.073Z,534.00
2023-05-24T08:06:13.083Z,516.00
2023-05-24T08:07:13.161Z,502.00
2023-05-24T08:08:13.139Z,497.00
2023-05-24T08:09:13.186Z,515.00
2023-05-24T08:10:13.218Z,573.00
2023-05-24T08:11:13.397Z,584.00
2023-05-24T08:12:15.591Z,592.00
2023-05-24T08:13:13.297Z,621.00
2023-05-24T08:14:13.276Z,589.00
2023-05-24T08:15:13.272Z,584.00
2023-05-24T08:16:13.306Z,600.00
2023-05-24T08:17:13.232Z,597.00
2023-05-24T08:18:14.059Z,597.00
2023-05-24T08:19:13.234Z,598.00
2023-05-24T08:20:13.230Z,572.00
2023-05-24T08:21:13.204Z,595.00
2023-05-24T08:22:13.214Z,571.00
2023-05-24T08:23:13.162Z,560.00
2023-05-24T08:24:13.200Z,508.00
2023-05-24T08:25:13.179Z,531.00
2023-05-24T08:26:13.178Z,525.00
2023-05-24T08:27:13.269Z,512.00
2023-05-24T08:28:13.163Z,523.00
2023-05-24T08:29:13.158Z,520.00
2023-05-24T08:30:13.175Z,522.00
2023-05-24T08:31:13.182Z,509.00
2023-05-24T08:32:13.200Z,513.00
2023-05-24T08:33:13.137Z,497.00
2023-05-24T08:34:13.124Z,545.00
2023-05-24T08:35:20.963Z,548.00
2023-05-24T08:36:14.093Z,549.00
2023-05-24T08:37:14.865Z,551.00
2023-05-24T08:38:13.080Z,562.00
2023-05-24T08:39:13.091Z,511.00
2023-05-24T08:40:13.050Z,559.00
2023-05-24T08:41:13.043Z,572.00
2023-05-24T08:42:13.060Z,608.00
2023-05-24T08:43:13.035Z,612.00
2023-05-24T08:44:13.055Z,621.00
2023-05-24T08:45:13.043Z,624.00
2023-05-24T08:46:13.081Z,566.00
2023-05-24T08:47:13.003Z,601.00
2023-05-24T08:48:13.096Z,601.00
2023-05-24T08:49:12.988Z,573.00
2023-05-24T08:50:13.000Z,589.00
2023-05-24T08:51:12.966Z,580.00
2023-05-24T08:52:12.990Z,595.00
2023-05-24T08:53:12.976Z,609.00
2023-05-24T08:54:12.949Z,602.00
2023-05-24T08:55:12.973Z,607.00
2023-05-24T08:56:12.955Z,620.00
2023-05-24T08:57:12.937Z,619.00
2023-05-24T08:58:12.950Z,615.00
2023-05-24T08:59:12.948Z,601.00
2023-05-24T09:00:13.194Z,608.00
2023-05-24T09:01:13.100Z,625.00
2023-05-24T09:02:12.922Z,622.00
2023-05-24T09:03:13.019Z,608.00
2023-05-24T09:04:12.894Z,627.00
2023-05-24T09:05:12.887Z,608.00
2023-05-24T09:06:13.062Z,583.00
2023-05-24T09:07:12.854Z,635.00
2023-05-24T09:08:12.852Z,562.00
2023-05-24T09:09:12.854Z,595.00
2023-05-24T09:10:12.863Z,631.00
2023-05-24T09:11:12.836Z,629.00
2023-05-24T09:12:16.844Z,645.00
2023-05-24T09:13:13.869Z,612.00
2023-05-24T09:14:12.808Z,567.00
2023-05-24T09:15:12.867Z,595.00
2023-05-24T09:16:13.122Z,609.00
2023-05-24T09:17:12.822Z,564.00
2023-05-24T09:18:12.794Z,617.00
2023-05-24T09:19:12.781Z,605.00
2023-05-24T09:20:12.872Z,642.00
2023-05-24T09:21:12.794Z,632.00
2023-05-24T09:22:12.797Z,641.00
2023-05-24T09:23:12.757Z,664.00
2023-05-24T09:24:12.748Z,595.00
2023-05-24T09:25:12.713Z,606.00
2023-05-24T09:26:12.727Z,638.00
2023-05-24T09:27:12.709Z,628.00
2023-05-24T09:28:12.741Z,598.00
2023-05-24T09:29:12.698Z,653.00
2023-05-24T09:30:13.121Z,655.00
2023-05-24T09:31:13.177Z,652.00
2023-05-24T09:32:12.688Z,614.00
2023-05-24T09:33:12.766Z,650.00
2023-05-24T09:34:12.706Z,613.00
2023-05-24T09:35:12.732Z,629.00
2023-05-24T09:36:12.728Z,622.00
2023-05-24T09:37:12.733Z,540.00
2023-05-24T09:38:12.716Z,572.00
2023-05-24T09:39:12.753Z,582.00
2023-05-24T09:40:12.728Z,622.00
2023-05-24T09:41:13.063Z,604.00
2023-05-24T09:42:12.724Z,570.00
2023-05-24T09:43:12.734Z,580.00
2023-05-24T09:44:12.740Z,548.00
2023-05-24T09:45:12.758Z,532.00
2023-05-24T09:46:12.746Z,615.00
2023-05-24T09:47:12.906Z,641.00
2023-05-24T09:48:12.826Z,661.00
2023-05-24T09:49:12.766Z,686.00
2023-05-24T09:50:12.784Z,654.00
2023-05-24T09:51:13.150Z,642.00
2023-05-24T09:52:12.832Z,677.00
2023-05-24T09:53:12.847Z,641.00
2023-05-24T09:54:12.844Z,641.00
2023-05-24T09:55:12.848Z,639.00
2023-05-24T09:56:12.877Z,620.00
2023-05-24T09:57:12.859Z,591.00
2023-05-24T09:58:12.982Z,592.00
2023-05-24T09:59:12.900Z,572.00
2023-05-24T10:00:12.883Z,606.00
2023-05-24T10:01:13.008Z,565.00
2023-05-24T10:02:12.962Z,554.00
2023-05-24T10:03:13.662Z,575.00
2023-05-24T10:04:13.090Z,578.00
2023-05-24T10:05:12.988Z,559.00
2023-05-24T10:06:13.017Z,553.00
2023-05-24T10:07:13.025Z,539.00
2023-05-24T10:08:13.050Z,518.00
2023-05-24T10:09:13.072Z,550.00
2023-05-24T10:10:13.112Z,516.00
2023-05-24T10:11:13.162Z,555.00
2023-05-24T10:12:13.183Z,545.00
2023-05-24T10:13:13.197Z,532.00
2023-05-24T10:14:13.271Z,551.00
2023-05-24T10:15:13.303Z,584.00
2023-05-24T10:16:13.412Z,569.00
2023-05-24T10:17:13.556Z,563.00
2023-05-24T10:18:14.504Z,528.00
2023-05-24T10:19:13.441Z,538.00
2023-05-24T10:20:13.502Z,573.00
2023-05-24T10:21:13.588Z,568.00
2023-05-24T10:22:13.569Z,527.00
2023-05-24T10:23:13.584Z,568.00
2023-05-24T10:24:13.701Z,598.00
2023-05-24T10:25:13.678Z,622.00
2023-05-24T10:26:13.702Z,581.00
2023-05-24T10:27:13.742Z,545.00
2023-05-24T10:28:13.828Z,595.00
2023-05-24T10:29:13.809Z,598.00
2023-05-24T10:30:14.208Z,607.00
2023-05-24T10:31:13.952Z,610.00
2023-05-24T10:32:13.928Z,649.00
2023-05-24T10:33:13.980Z,562.00
2023-05-24T10:34:13.960Z,567.00
2023-05-24T10:35:14.009Z,566.00
2023-05-24T10:36:14.072Z,574.00
2023-05-24T10:37:14.136Z,553.00
2023-05-24T10:38:14.125Z,599.00
2023-05-24T10:39:14.173Z,580.00
2023-05-24T10:40:14.259Z,601.00
2023-05-24T10:41:14.390Z,590.00
2023-05-24T10:42:14.302Z,632.00
2023-05-24T10:43:14.372Z,636.00
2023-05-24T10:44:14.370Z,653.00
2023-05-24T10:45:14.322Z,767.00
2023-05-24T10:46:14.364Z,803.00
2023-05-24T10:47:14.313Z,820.00
2023-05-24T10:48:14.438Z,792.00
2023-05-24T10:49:14.323Z,699.00
2023-05-24T10:50:14.354Z,665.00
2023-05-24T10:51:14.335Z,651.00
2023-05-24T10:52:14.319Z,637.00
2023-05-24T10:53:14.342Z,728.00
2023-05-24T10:54:14.293Z,679.00
2023-05-24T10:55:14.313Z,662.00
2023-05-24T10:56:14.356Z,646.00
2023-05-24T10:57:14.362Z,651.00
2023-05-24T10:58:14.372Z,660.00
2023-05-24T10:59:14.320Z,628.00
2023-05-24T11:00:17.970Z,576.00
2023-05-24T11:01:15.372Z,578.00
2023-05-24T11:02:14.407Z,585.00
2023-05-24T11:03:14.390Z,583.00
2023-05-24T11:04:14.368Z,583.00
2023-05-24T11:05:14.366Z,622.00
2023-05-24T11:06:14.291Z,578.00
2023-05-24T11:07:14.330Z,597.00
2023-05-24T11:08:14.299Z,587.00
2023-05-24T11:09:14.274Z,604.00
2023-05-24T11:10:14.293Z,628.00
2023-05-24T11:11:23.291Z,624.00
2023-05-24T11:12:15.249Z,597.00
2023-05-24T11:13:14.268Z,625.00
2023-05-24T11:14:14.221Z,635.00
2023-05-24T11:15:14.240Z,652.00
2023-05-24T11:16:14.267Z,664.00
2023-05-24T11:17:14.226Z,618.00
2023-05-24T11:18:14.313Z,582.00
2023-05-24T11:19:14.196Z,569.00
2023-05-24T11:20:14.288Z,611.00
2023-05-24T11:21:14.206Z,575.00
2023-05-24T11:22:14.219Z,596.00
2023-05-24T11:23:14.177Z,632.00
2023-05-24T11:24:14.195Z,621.00
2023-05-24T11:25:14.170Z,628.00
2023-05-24T11:26:15.114Z,651.00
2023-05-24T11:27:14.157Z,639.00
2023-05-24T11:28:14.174Z,662.00
2023-05-24T11:29:14.167Z,687.00
2023-05-24T11:30:14.213Z,716.00
2023-05-24T11:31:14.188Z,722.00
2023-05-24T11:32:14.279Z,744.00
2023-05-24T11:33:14.271Z,738.00
2023-05-24T11:34:14.222Z,755.00
2023-05-24T11:35:14.260Z,753.00
2023-05-24T11:36:14.336Z,750.00
2023-05-24T11:37:16.834Z,773.00
2023-05-24T11:38:14.385Z,781.00
2023-05-24T11:39:14.377Z,769.00
2023-05-24T11:40:14.358Z,780.00
2023-05-24T11:41:14.355Z,790.00
2023-05-24T11:42:14.364Z,793.00
2023-05-24T11:43:16.561Z,789.00
2023-05-24T11:44:14.476Z,789.00
2023-05-24T11:45:14.425Z,793.00
2023-05-24T11:46:14.463Z,795.00
2023-05-24T11:47:14.506Z,808.00
2023-05-24T11:48:14.621Z,821.00
2023-05-24T11:49:14.608Z,820.00
2023-05-24T11:50:15.647Z,826.00
2023-05-24T11:51:14.671Z,839.00
2023-05-24T11:52:14.743Z,857.00
2023-05-24T11:53:14.729Z,864.00
2023-05-24T11:54:14.734Z,872.00
2023-05-24T11:55:16.578Z,883.00
2023-05-24T11:56:14.823Z,875.00
2023-05-24T11:57:14.862Z,862.00
2023-05-24T11:58:14.907Z,869.00
2023-05-24T11:59:14.926Z,873.00
2023-05-24T12:00:14.990Z,881.00
2023-05-24T12:01:15.030Z,884.00
2023-05-24T12:02:15.129Z,878.00
2023-05-24T12:03:15.217Z,873.00
2023-05-24T12:04:15.269Z,876.00
2023-05-24T12:05:15.181Z,879.00
2023-05-24T12:06:15.235Z,875.00
2023-05-24T12:07:15.289Z,870.00
2023-05-24T12:08:15.296Z,867.00
2023-05-24T12:09:15.333Z,876.00
2023-05-24T12:10:15.361Z,872.00
2023-05-24T12:11:15.414Z,865.00
2023-05-24T12:12:15.483Z,857.00
2023-05-24T12:13:15.501Z,858.00
2023-05-24T12:14:15.539Z,868.00
2023-05-24T12:15:15.603Z,860.00
2023-05-24T12:16:15.666Z,857.00
2023-05-24T12:17:15.637Z,863.00
2023-05-24T12:18:15.743Z,871.00
2023-05-24T12:19:31.593Z,868.00
2023-05-24T12:20:16.808Z,869.00
2023-05-24T12:21:15.749Z,868.00
2023-05-24T12:22:16.191Z,875.00
2023-05-24T12:23:15.750Z,891.00
2023-05-24T12:24:15.687Z,891.00
2023-05-24T12:25:15.717Z,891.00
2023-05-24T12:26:15.678Z,886.00
2023-05-24T12:27:15.739Z,892.00
2023-05-24T12:28:15.692Z,894.00
2023-05-24T12:29:15.651Z,880.00